This is the latest recevied weather packets stored in our database for station/object K8CWG. If no packets are shown the sender has not sent any weather packets the latest 10 day(s).
| Time | Temp. | Humidity | Pressure | Rain* | Wind** | Luminosity | Snow |
|---|---|---|---|---|---|---|---|
| 1788570004 | 25° C | 86% | 1010.6 hPa | 0 mm | - | - | - |
| 1788566402 | 26.11° C | 81% | 1010.5 hPa | 0 mm | - | - | - |
| 1788562803 | 26.67° C | 79% | 1010.6 hPa | 0 mm | - | - | - |
| 1788561901 | 27.22° C | 77% | 1010.8 hPa | 0 mm | - | - | - |
| 1788561003 | 27.22° C | 78% | 1010.5 hPa | 0 mm | - | - | - |
| 1788560101 | 26.67° C | 79% | 1011 hPa | 0 mm | - | - | - |
| 1788559204 | 27.22° C | 76% | 1011.2 hPa | 0 mm | - | - | - |
| 1788558301 | 27.78° C | 73% | 1012.1 hPa | 0 mm | - | - | - |
| 1788557401 | 28.33° C | 72% | 1012 hPa | 0 mm | - | - | - |
| 1788556501 | 29.44° C | 71% | 1011.8 hPa | 0 mm | - | - | - |
| 1788555602 | 31.11° C | 64% | 1011.8 hPa | 0 mm | - | - | - |
| 1788554701 | 35° C | 52% | 1011.2 hPa | 0 mm | - | - | - |
| 1788553802 | 36.11° C | 50% | 1011 hPa | 0 mm | - | - | - |
| 1788552903 | 35.56° C | 54% | 1011.2 hPa | 0 mm | - | - | - |
| 1788552003 | 35.56° C | 52% | 1011.2 hPa | 0 mm | - | - | - |
| 1788551102 | 35° C | 53% | 1011.3 hPa | 0 mm | - | - | - |
| 1788550203 | 36.11° C | 50% | 1011.2 hPa | 0 mm | - | - | - |
| 1788549303 | 36.11° C | 52% | 1011.4 hPa | 0 mm | - | - | - |
| 1788548402 | 36.67° C | 52% | 1011.6 hPa | 0 mm | - | - | - |
| 1788546601 | 36.11° C | 51% | 1011.9 hPa | 0 mm | - | - | - |
| 1788545702 | 35.56° C | 53% | 1012.1 hPa | 0 mm | - | - | - |
| 1788544803 | 36.11° C | 53% | 1012.4 hPa | 0 mm | - | - | - |
| 1788541203 | 34.44° C | 55% | 1013.2 hPa | 0 mm | - | - | - |
| 1788537603 | 33.89° C | 61% | 1013.4 hPa | 0 mm | - | - | - |
| 1788534901 | 32.22° C | 67% | 1013.3 hPa | 0 mm | - | - | - |
* Rain latest hour (hover to see other rain measurements)
** Current wind speed in m/s (hover to see current wind gust speed)